KMYV/MYV METAR and TAF weather

Enter ICAO airport designator
Station Type Date Time Source
KMYV METAR 2020/04/02 03:53 UTC NOAA

KMYV 020353Z AUTO 33006KT 10SM CLR 11/M05 A2996 RMK AO2 SLP148 T01061050


Station Type Date Time Source
KMYV Decoded METAR 2020/04/02 03:53 UTC NOAA

MARYSVILLE YUBA COUNTY, CA, United States (KMYV) 39-06N 121-34W 21M
Apr 01, 2020 - 11:53 PM EDT / 2020.04.02 0353 UTC
Wind: from the NNW (330 degrees) at 7 MPH (6 KT):0
Visibility: 10 mile(s):0
Sky conditions: clear
Temperature: 51.1 F (10.6 C)
Dew Point: 23.0 F (-5.0 C)
Relative Humidity: 32%
Pressure (altimeter): 29.96 in. Hg (1014 hPa)
ob: KMYV 020353Z AUTO 33006KT 10SM CLR 11/M05 A2996 RMK AO2 SLP148 T01061050
cycle: 4

Station Type Date Time Source
KMYV TAF UTC NOAA

Error!

Example: see airport list